Lovely Linda — WCV8236 — position and weather

sailwx.info

Track history (hours):
 
Tides and Currents Weather Stations Pressure Air Temp Water Temp Dewpoint Dewpoint Depression Visibility Wind Speed Wind Dir Waves Ship Positions

Lovely Linda

Owner: LUGO, PETER A, CAPE CORAL, FL. More information available from US FCC via Universal Licensing System and Coast Guard Vessel Documentation Center.

Last reported at 2017-Sep-22 02:00 UTC. Time now 2017-Sep-23 16:33 UTC.
Position N 34°09' W 119°12'.

Length 32 m.

Type: Passenger vessel. MMSI: 367077090.

Date/timePositionNaut miles runAvg speedWind from/ knotsBaromVisibWave heightAir tempDewpointWater temp
2017-Sep-22 02:00N 34°09' W 119°12'0 0.0
2017-Sep-22 01:30N 34°09' W 119°12'0 0.0
2017-Sep-22 01:00N 34°09' W 119°12'0 0.0
2017-Sep-22 00:30N 34°09' W 119°12'0 0.0
2017-Sep-22 00:00N 34°09' W 119°12'0 0.0
2017-Sep-21 23:21N 34°09' W 119°12'0 0.0
2017-Sep-21 23:00N 34°09' W 119°12'0 0.0
2017-Sep-21 22:29N 34°09' W 119°12'510.9
2017-Sep-21 22:00N 34°13' W 119°17'2 3.5
2017-Sep-21 21:28N 34°14' W 119°16'3 5.9
2017-Sep-21 21:00N 34°15' W 119°19'1415.9
2017-Sep-21 20:07N 34°18' W 119°36'515.6
2017-Sep-21 19:47N 34°19' W 119°42'515.1
2017-Sep-21 19:29N 34°20' W 119°47'1015.3
2017-Sep-21 18:49N 34°22' W 119°59'615.3
2017-Sep-21 18:24N 34°23' W 120°07'0 1.2
2017-Sep-21 18:00N 34°23' W 120°07'714.6
2017-Sep-21 17:30N 34°21' W 120°16'1 1.8
2017-Sep-21 17:00N 34°21' W 120°17'714.0
2017-Sep-21 16:29N 34°23' W 120°08'714.0
2017-Sep-21 15:59N 34°24' W 119°60'4 3.1
2017-Sep-21 14:41N 34°26' W 119°55'0 0.5
2017-Sep-21 14:14N 34°26' W 119°55'0 0.0
2017-Sep-21 10:17N 34°26' W 119°55'0 0.0
2017-Sep-21 08:20N 34°26' W 119°55'0 0.0
2017-Sep-21 04:47N 34°26' W 119°55'0 0.0
2017-Sep-21 01:35N 34°26' W 119°55'0 1.9
2017-Sep-21 01:22N 34°25' W 119°56'515.3
2017-Sep-21 01:00N 34°24' W 120°02'4 7.8
2017-Sep-21 00:28N 34°23' W 120°07'4 8.8
2017-Sep-21 00:00N 34°23' W 120°02'815.8
2017-Sep-20 23:30N 34°21' W 119°53'2415.8
2017-Sep-20 22:01N 34°16' W 119°25'315.6
2017-Sep-20 21:51N 34°16' W 119°22'512.8
2017-Sep-20 21:27N 34°15' W 119°16'0 0.7
2017-Sep-20 20:52N 34°15' W 119°16'410.6
2017-Sep-20 20:30N 34°15' W 119°20'2215.9
2017-Sep-20 19:08N 34°21' W 119°46'215.4
2017-Sep-20 19:00N 34°21' W 119°48'711.3
2017-Sep-20 18:23N 34°23' W 119°56'615.6
2017-Sep-20 18:00N 34°24' W 120°03'3 6.1
2017-Sep-20 17:30N 34°25' W 120°07'1015.9
2017-Sep-20 16:54N 34°24' W 119°55'813.0
2017-Sep-20 16:18N 34°21' W 119°46'516.1
2017-Sep-20 16:00N 34°20' W 119°41'1015.7
2017-Sep-20 15:22N 34°17' W 119°29'715.5
2017-Sep-20 14:56N 34°15' W 119°21'5 5.0
2017-Sep-20 13:59N 34°14' W 119°16'0 0.0
2017-Sep-20 13:26N 34°14' W 119°16'0 0.0
2017-Sep-20 12:59N 34°14' W 119°16'0 0.0
2017-Sep-20 12:26N 34°14' W 119°16'0 0.0
2017-Sep-20 11:56N 34°14' W 119°16'0 0.0
2017-Sep-20 11:26N 34°14' W 119°16'0 0.0
2017-Sep-20 10:59N 34°14' W 119°16'0 0.0
2017-Sep-20 10:29N 34°14' W 119°16'0 0.0
2017-Sep-20 09:59N 34°14' W 119°16'0 0.0
2017-Sep-20 09:29N 34°14' W 119°16'0 0.0
2017-Sep-20 08:59N 34°14' W 119°16'0 0.0
2017-Sep-20 08:29N 34°14' W 119°16'0 0.0
2017-Sep-20 07:59N 34°14' W 119°16'0 0.0
2017-Sep-20 07:26N 34°14' W 119°16'0 0.0
2017-Sep-20 06:59N 34°14' W 119°16'0 0.0
2017-Sep-20 06:29N 34°14' W 119°16'0 0.0
2017-Sep-20 05:59N 34°14' W 119°16'0 0.0
2017-Sep-20 05:29N 34°14' W 119°16'0 0.0
2017-Sep-20 04:59N 34°14' W 119°16'0 0.0
2017-Sep-20 04:26N 34°14' W 119°16'0 0.0
2017-Sep-20 03:56N 34°14' W 119°16'0 0.0
2017-Sep-20 03:20N 34°14' W 119°16'0 0.0
2017-Sep-20 02:59N 34°14' W 119°16'0 0.0
2017-Sep-20 02:26N 34°14' W 119°16'0 0.0
2017-Sep-20 01:59N 34°14' W 119°16'0 0.0
2017-Sep-20 01:26N 34°14' W 119°16'0 0.0
2017-Sep-20 00:59N 34°14' W 119°16'0 0.0
2017-Sep-20 00:29N 34°14' W 119°16'0 0.0
2017-Sep-19 23:59N 34°14' W 119°16'0 0.0
2017-Sep-19 23:29N 34°14' W 119°16'0 0.0
2017-Sep-19 22:56N 34°14' W 119°16'0 0.0
2017-Sep-19 22:20N 34°14' W 119°16'0 0.0
2017-Sep-19 21:59N 34°14' W 119°16'0 0.0
2017-Sep-19 21:29N 34°14' W 119°16'0 0.0
2017-Sep-19 20:59N 34°14' W 119°16'0 0.0
2017-Sep-19 20:29N 34°14' W 119°16'0 0.0
2017-Sep-19 19:59N 34°14' W 119°16'1 1.2
2017-Sep-19 19:30N 34°15' W 119°16'814.7
2017-Sep-19 18:57N 34°15' W 119°26'716.1
2017-Sep-19 18:30N 34°17' W 119°34'913.8
2017-Sep-19 17:51N 34°17' W 119°45'1012.1
2017-Sep-19 17:04N 34°08' W 119°45'0 1.7
2017-Sep-19 17:00N 34°08' W 119°45'510.4
2017-Sep-19 16:30N 34°03' W 119°42'815.5
2017-Sep-19 15:57N 34°04' W 119°32'715.4
2017-Sep-19 15:30N 34°08' W 119°24'815.7
2017-Sep-19 14:59N 34°14' W 119°17'2 0.0
2017-Sep-17 19:14N 34°14' W 119°16'0 0.1
2017-Sep-17 16:47N 34°15' W 119°16'2 5.8
2017-Sep-17 16:30N 34°14' W 119°18'714.8
2017-Sep-17 16:00N 34°15' W 119°27'714.9
2017-Sep-17 15:30N 34°18' W 119°35'914.8
2017-Sep-17 14:54N 34°21' W 119°45'715.0
2017-Sep-17 14:27N 34°22' W 119°53'4 8.8
2017-Sep-17 14:00N 34°26' W 119°55'0 0.3
2017-Sep-17 13:21N 34°26' W 119°55'0 0.0
2017-Sep-17 09:15N 34°26' W 119°55'0 0.0
2017-Sep-17 07:51N 34°26' W 119°55'0 0.0
2017-Sep-17 06:20N 34°26' W 119°55'0 0.0
2017-Sep-17 05:17N 34°26' W 119°55'0 0.0
2017-Sep-17 04:41N 34°26' W 119°55'0 0.0
2017-Sep-17 00:14N 34°26' W 119°55'313.0
2017-Sep-16 23:59N 34°24' W 119°59'714.0
2017-Sep-16 23:30N 34°23' W 120°07'0 0.0
2017-Sep-16 23:00N 34°23' W 120°07'0 0.0
2017-Sep-16 22:27N 34°23' W 120°07'0 0.1
2017-Sep-16 22:00N 34°23' W 120°07'0 0.0
2017-Sep-16 21:30N 34°23' W 120°07'0 0.0
2017-Sep-16 21:00N 34°23' W 120°07'0 0.0
2017-Sep-16 20:30N 34°23' W 120°07'0 0.0
2017-Sep-16 20:00N 34°23' W 120°07'0 0.0
2017-Sep-16 19:30N 34°23' W 120°07'0 0.0
2017-Sep-16 18:59N 34°23' W 120°07'0 0.0
2017-Sep-16 18:29N 34°23' W 120°07'0 0.1
2017-Sep-16 17:59N 34°23' W 120°07'2 5.1
2017-Sep-16 17:30N 34°23' W 120°10'0 0.0
2017-Sep-16 17:00N 34°23' W 120°10'0 0.1
2017-Sep-16 16:28N 34°23' W 120°10'0 0.0
2017-Sep-16 15:58N 34°23' W 120°10'0 0.0
2017-Sep-16 15:28N 34°23' W 120°10'0 0.0
2017-Sep-16 15:00N 34°23' W 120°10'610.9
2017-Sep-16 14:28N 34°21' W 120°17'511.4
2017-Sep-16 14:00N 34°23' W 120°11'3 6.2
2017-Sep-16 13:30N 34°23' W 120°07'0 0.0
2017-Sep-16 13:00N 34°23' W 120°07'0 0.0
2017-Sep-16 12:30N 34°23' W 120°07'0 0.1
2017-Sep-16 12:00N 34°23' W 120°07'0 0.0
2017-Sep-16 11:30N 34°23' W 120°07'0 0.0
2017-Sep-16 11:00N 34°23' W 120°07'0 0.0
2017-Sep-16 10:30N 34°23' W 120°07'0 0.0
2017-Sep-16 10:00N 34°23' W 120°07'0 0.0
2017-Sep-16 09:30N 34°23' W 120°07'0 0.0
2017-Sep-16 09:00N 34°23' W 120°07'0 0.0
2017-Sep-16 08:27N 34°23' W 120°07'0 0.0
2017-Sep-16 08:00N 34°23' W 120°07'0 0.0
2017-Sep-16 07:30N 34°23' W 120°07'0 0.0
2017-Sep-16 07:00N 34°23' W 120°07'0 0.0
2017-Sep-16 06:30N 34°23' W 120°07'0 0.0
2017-Sep-16 06:00N 34°23' W 120°07'0 0.0
2017-Sep-16 05:30N 34°23' W 120°07'0 0.0
2017-Sep-16 05:00N 34°23' W 120°07'0 0.1
2017-Sep-16 04:30N 34°23' W 120°07'0 0.1
2017-Sep-16 03:57N 34°23' W 120°07'0 0.0
2017-Sep-16 03:30N 34°23' W 120°07'0 0.0
2017-Sep-16 03:00N 34°23' W 120°07'0 0.0
2017-Sep-16 02:28N 34°23' W 120°07'0 0.0
2017-Sep-16 01:55N 34°23' W 120°07'0 0.0
2017-Sep-16 01:24N 34°23' W 120°07'0 0.0
2017-Sep-16 00:58N 34°23' W 120°07'0 0.0
2017-Sep-16 00:28N 34°23' W 120°07'4 8.2
2017-Sep-16 00:00N 34°24' W 120°03'611.7
2017-Sep-15 23:29N 34°26' W 119°55'713.8
2017-Sep-15 23:00N 34°24' W 120°03'3 6.9
2017-Sep-15 22:30N 34°23' W 120°07'613.0
2017-Sep-15 22:00N 34°21' W 120°15'2 3.2
2017-Sep-15 21:29N 34°21' W 120°17'611.3
2017-Sep-15 20:57N 34°22' W 120°10'613.8
2017-Sep-15 20:30N 34°22' W 120°02'814.0
2017-Sep-15 19:55N 34°21' W 119°52'713.9
2017-Sep-15 19:25N 34°18' W 119°44'914.0
2017-Sep-15 18:49N 34°15' W 119°35'713.1
2017-Sep-15 18:15N 34°12' W 119°27'412.2
2017-Sep-15 17:57N 34°11' W 119°23'612.5
2017-Sep-15 17:30N 34°09' W 119°16'3 6.4
2017-Sep-15 16:59N 34°09' W 119°12'0 0.0
2017-Sep-15 16:20N 34°09' W 119°12'0 0.0
2017-Sep-15 15:44N 34°09' W 119°12'0 0.0
2017-Sep-15 15:26N 34°09' W 119°12'0 0.0
2017-Sep-15 14:59N 34°09' W 119°12'0 0.0
2017-Sep-15 14:26N 34°09' W 119°12'0 0.0
2017-Sep-15 13:59N 34°09' W 119°12'0 0.0
2017-Sep-15 13:29N 34°09' W 119°12'0 0.0
2017-Sep-15 12:59N 34°09' W 119°12'0 0.0
2017-Sep-15 12:26N 34°09' W 119°12'0 0.0
2017-Sep-15 11:59N 34°09' W 119°12'0 0.0
2017-Sep-15 11:29N 34°09' W 119°12'0 0.0
2017-Sep-15 10:59N 34°09' W 119°12'0 0.0
2017-Sep-15 10:29N 34°09' W 119°12'0 0.0
2017-Sep-15 09:59N 34°09' W 119°12'0 0.0
2017-Sep-15 09:29N 34°09' W 119°12'0 0.0
2017-Sep-15 08:56N 34°09' W 119°12'0 0.0
2017-Sep-15 08:29N 34°09' W 119°12'0 0.0
2017-Sep-15 07:53N 34°09' W 119°12'0 0.0
2017-Sep-15 07:26N 34°09' W 119°12'0 0.0
2017-Sep-15 06:53N 34°09' W 119°12'0 0.0
2017-Sep-15 06:29N 34°09' W 119°12'0 0.0
2017-Sep-15 05:59N 34°09' W 119°12'0 0.0
2017-Sep-15 05:26N 34°09' W 119°12'0 0.0
2017-Sep-15 04:59N 34°09' W 119°12'0 0.0
2017-Sep-15 04:20N 34°09' W 119°12'0 0.0
2017-Sep-15 03:59N 34°09' W 119°12'0 0.0
2017-Sep-15 03:26N 34°09' W 119°12'0 0.0
2017-Sep-15 02:38N 34°09' W 119°12'0 0.0
2017-Sep-15 02:26N 34°09' W 119°12'0 0.0
2017-Sep-15 01:59N 34°09' W 119°12'0 0.1
2017-Sep-15 01:30N 34°09' W 119°12'5 9.7
2017-Sep-15 01:00N 34°12' W 119°16'2 3.3
2017-Sep-15 00:22N 34°14' W 119°16'0 0.0
2017-Sep-14 23:25N 34°14' W 119°16'0 0.0
2017-Sep-14 22:58N 34°14' W 119°16'7 9.6
2017-Sep-14 22:17N 34°16' W 119°24'714.7
2017-Sep-14 21:50N 34°17' W 119°31'1714.7
2017-Sep-14 20:40N 34°22' W 119°52'414.4
2017-Sep-14 20:23N 34°22' W 119°56'614.1
2017-Sep-14 19:59N 34°23' W 120°03'4 6.7
2017-Sep-14 19:28N 34°23' W 120°07'0 0.0
2017-Sep-14 19:00N 34°23' W 120°07'0 0.2
2017-Sep-14 18:26N 34°24' W 120°07'4 8.9
2017-Sep-14 18:00N 34°22' W 120°12'4 7.6
2017-Sep-14 17:25N 34°21' W 120°17'0 0.0
2017-Sep-14 16:55N 34°21' W 120°17'513.3
2017-Sep-14 16:30N 34°23' W 120°10'3 5.2
2017-Sep-14 15:58N 34°23' W 120°07'613.3
2017-Sep-14 15:30N 34°24' W 119°60'4 7.5
2017-Sep-14 14:59N 34°26' W 119°55'0 0.2
2017-Sep-14 14:22N 34°26' W 119°55'0 0.0
2017-Sep-14 10:33N 34°26' W 119°55'0 0.0
2017-Sep-14 10:21N 34°26' W 119°55'0 0.0
2017-Sep-14 06:51N 34°26' W 119°55'0 0.0
2017-Sep-14 05:09N 34°26' W 119°55'0 0.0
2017-Sep-14 03:03N 34°26' W 119°55'0 0.0
2017-Sep-14 02:42N 34°26' W 119°55'0 0.0
2017-Sep-14 01:14N 34°26' W 119°55'1 5.9
2017-Sep-14 00:59N 34°25' W 119°56'714.9
2017-Sep-14 00:30N 34°24' W 120°05'510.4
2017-Sep-14 00:00N 34°22' W 120°11'5 9.5
2017-Sep-13 23:30N 34°21' W 120°17'4 8.2
2017-Sep-13 23:00N 34°22' W 120°12'2 3.5
2017-Sep-13 22:29N 34°23' W 120°10'0 0.0
2017-Sep-13 21:56N 34°22' W 120°10'0 0.0
2017-Sep-13 21:29N 34°23' W 120°10'0 0.0
2017-Sep-13 20:59N 34°23' W 120°10'0 0.0
2017-Sep-13 20:20N 34°22' W 120°10'0 0.0
2017-Sep-13 19:56N 34°22' W 120°10'0 0.1
2017-Sep-13 19:22N 34°22' W 120°10'3 8.9
2017-Sep-13 19:00N 34°24' W 120°06'612.2
2017-Sep-13 18:30N 34°24' W 119°59'3 6.2
2017-Sep-13 17:59N 34°26' W 119°55'0 0.0
2017-Sep-13 17:30N 34°26' W 119°55'0 0.0
2017-Sep-13 16:56N 34°26' W 119°55'1 2.2
2017-Sep-13 16:30N 34°25' W 119°56'814.4
2017-Sep-13 15:58N 34°24' W 120°05'2 3.4
2017-Sep-13 15:28N 34°24' W 120°07'1 2.8
2017-Sep-13 15:00N 34°23' W 120°09'713.7
2017-Sep-13 14:29N 34°21' W 120°17'4 9.3
2017-Sep-13 14:00N 34°22' W 120°12'4 7.2
2017-Sep-13 13:29N 34°23' W 120°07'0 0.0
2017-Sep-13 12:59N 34°23' W 120°07'0 0.0
2017-Sep-13 12:29N 34°23' W 120°07'0 0.0
2017-Sep-13 11:59N 34°23' W 120°07'0 0.0
2017-Sep-13 11:29N 34°23' W 120°07'0 0.0
2017-Sep-13 10:56N 34°23' W 120°07'0 0.0
2017-Sep-13 10:29N 34°23' W 120°07'0 0.0
2017-Sep-13 09:53N 34°23' W 120°07'0 0.0
2017-Sep-13 09:29N 34°23' W 120°07'0 0.0
2017-Sep-13 08:59N 34°23' W 120°07'0 0.1
2017-Sep-13 08:29N 34°23' W 120°07'0 0.0
2017-Sep-13 07:56N 34°23' W 120°07'0 0.0
2017-Sep-13 07:29N 34°23' W 120°07'0 0.0
2017-Sep-13 06:59N 34°23' W 120°07'0 0.0
2017-Sep-13 06:29N 34°23' W 120°07'0 0.1
2017-Sep-13 05:58N 34°23' W 120°07'0 0.0
2017-Sep-13 05:28N 34°23' W 120°07'0 0.0
2017-Sep-13 04:52N 34°23' W 120°07'0 0.0
2017-Sep-13 04:19N 34°23' W 120°07'0 0.0
2017-Sep-13 03:58N 34°23' W 120°07'0 0.0
2017-Sep-13 03:28N 34°23' W 120°07'0 0.0
2017-Sep-13 02:58N 34°23' W 120°07'0 0.0
2017-Sep-13 02:27N 34°23' W 120°07'0 0.0
2017-Sep-13 02:00N 34°23' W 120°07'0 0.0
2017-Sep-13 01:28N 34°23' W 120°07'0 0.0
2017-Sep-13 00:58N 34°23' W 120°07'0 0.0
2017-Sep-13 00:25N 34°23' W 120°07'0 0.5
2017-Sep-13 00:00N 34°23' W 120°07'713.0
2017-Sep-12 23:29N 34°24' W 119°59'4 4.7
2017-Sep-12 22:45N 34°26' W 119°55'0 0.0
2017-Sep-12 22:30N 34°26' W 119°55'0 0.0
2017-Sep-12 22:00N 34°26' W 119°55'0 0.0
2017-Sep-12 21:21N 34°26' W 119°55'0 0.0
2017-Sep-12 20:54N 34°26' W 119°55'0 0.0
2017-Sep-12 20:30N 34°26' W 119°55'0 0.0
2017-Sep-12 19:59N 34°26' W 119°55'0 0.0
2017-Sep-12 19:17N 34°26' W 119°55'0 0.0
2017-Sep-12 18:50N 34°26' W 119°55'0 0.0
2017-Sep-12 18:26N 34°26' W 119°55'0 0.0
2017-Sep-12 17:59N 34°26' W 119°55'0 0.0
2017-Sep-12 17:29N 34°26' W 119°55'0 0.0
2017-Sep-12 16:38N 34°26' W 119°55'0 0.0
2017-Sep-12 16:17N 34°26' W 119°55'0 0.7
2017-Sep-12 15:58N 34°26' W 119°55'611.6
2017-Sep-12 15:26N 34°24' W 120°03'614.5
2017-Sep-12 15:00N 34°23' W 120°10'611.3
2017-Sep-12 14:30N 34°21' W 120°17'611.6
2017-Sep-12 14:00N 34°23' W 120°10'3 5.1
2017-Sep-12 13:30N 34°23' W 120°07'0 0.0
2017-Sep-12 13:00N 34°23' W 120°07'0 0.0
2017-Sep-12 12:30N 34°23' W 120°07'0 0.0
2017-Sep-12 12:00N 34°23' W 120°07'0 0.0
2017-Sep-12 11:27N 34°23' W 120°07'0 0.0
2017-Sep-12 10:45N 34°23' W 120°07'0 0.2
2017-Sep-12 10:30N 34°23' W 120°07'0 0.1
2017-Sep-12 10:00N 34°23' W 120°07'0 0.0
2017-Sep-12 09:27N 34°23' W 120°07'0 0.0
2017-Sep-12 09:00N 34°23' W 120°07'0 0.0
2017-Sep-12 08:30N 34°23' W 120°07'0 0.0
2017-Sep-12 08:00N 34°23' W 120°07'0 0.0
2017-Sep-12 07:30N 34°23' W 120°07'0 0.0
2017-Sep-12 07:00N 34°23' W 120°07'0 0.0
2017-Sep-12 06:27N 34°23' W 120°07'0 0.0
2017-Sep-12 06:00N 34°23' W 120°07'0 0.0
2017-Sep-12 05:27N 34°23' W 120°07'0 0.1
2017-Sep-12 04:39N 34°23' W 120°07'0 0.0
2017-Sep-12 04:30N 34°23' W 120°07'0 0.0
2017-Sep-12 03:57N 34°23' W 120°07'0 0.1
2017-Sep-12 03:21N 34°23' W 120°07'0 0.1
2017-Sep-12 02:51N 34°23' W 120°07'0 0.0
2017-Sep-12 02:30N 34°23' W 120°07'  
Track history (hours):
 
Tides and Currents Weather Stations Pressure Air Temp Water Temp Dewpoint Dewpoint Depression Visibility Wind Speed Wind Dir Waves Ship Positions

Lovely Linda

Owner: LUGO, PETER A, CAPE CORAL, FL. More information available from US FCC via Universal Licensing System and Coast Guard Vessel Documentation Center.

Last reported at 2017-Sep-22 02:00 UTC. Time now 2017-Sep-23 16:33 UTC.
Position N 34°09' W 119°12'.

Length 32 m.

Type: Passenger vessel. MMSI: 367077090.

Date/timePositionNaut miles runAvg speedWind from/ knotsBaromVisibWave heightAir tempDewpointWater temp
2017-Sep-22 02:00N 34°09' W 119°12'0 0.0
2017-Sep-22 01:30N 34°09' W 119°12'0 0.0
2017-Sep-22 01:00N 34°09' W 119°12'0 0.0
2017-Sep-22 00:30N 34°09' W 119°12'0 0.0
2017-Sep-22 00:00N 34°09' W 119°12'0 0.0
2017-Sep-21 23:21N 34°09' W 119°12'0 0.0
2017-Sep-21 23:00N 34°09' W 119°12'0 0.0
2017-Sep-21 22:29N 34°09' W 119°12'510.9
2017-Sep-21 22:00N 34°13' W 119°17'2 3.5
2017-Sep-21 21:28N 34°14' W 119°16'3 5.9
2017-Sep-21 21:00N 34°15' W 119°19'1415.9
2017-Sep-21 20:07N 34°18' W 119°36'515.6
2017-Sep-21 19:47N 34°19' W 119°42'515.1
2017-Sep-21 19:29N 34°20' W 119°47'1015.3
2017-Sep-21 18:49N 34°22' W 119°59'615.3
2017-Sep-21 18:24N 34°23' W 120°07'0 1.2
2017-Sep-21 18:00N 34°23' W 120°07'714.6
2017-Sep-21 17:30N 34°21' W 120°16'1 1.8
2017-Sep-21 17:00N 34°21' W 120°17'714.0
2017-Sep-21 16:29N 34°23' W 120°08'714.0
2017-Sep-21 15:59N 34°24' W 119°60'4 3.1
2017-Sep-21 14:41N 34°26' W 119°55'0 0.5
2017-Sep-21 14:14N 34°26' W 119°55'0 0.0
2017-Sep-21 10:17N 34°26' W 119°55'0 0.0
2017-Sep-21 08:20N 34°26' W 119°55'0 0.0
2017-Sep-21 04:47N 34°26' W 119°55'0 0.0
2017-Sep-21 01:35N 34°26' W 119°55'0 1.9
2017-Sep-21 01:22N 34°25' W 119°56'515.3
2017-Sep-21 01:00N 34°24' W 120°02'4 7.8
2017-Sep-21 00:28N 34°23' W 120°07'4 8.8
2017-Sep-21 00:00N 34°23' W 120°02'815.8
2017-Sep-20 23:30N 34°21' W 119°53'2415.8
2017-Sep-20 22:01N 34°16' W 119°25'315.6
2017-Sep-20 21:51N 34°16' W 119°22'512.8
2017-Sep-20 21:27N 34°15' W 119°16'0 0.7
2017-Sep-20 20:52N 34°15' W 119°16'410.6
2017-Sep-20 20:30N 34°15' W 119°20'2215.9
2017-Sep-20 19:08N 34°21' W 119°46'215.4
2017-Sep-20 19:00N 34°21' W 119°48'711.3
2017-Sep-20 18:23N 34°23' W 119°56'615.6
2017-Sep-20 18:00N 34°24' W 120°03'3 6.1
2017-Sep-20 17:30N 34°25' W 120°07'1015.9
2017-Sep-20 16:54N 34°24' W 119°55'813.0
2017-Sep-20 16:18N 34°21' W 119°46'516.1
2017-Sep-20 16:00N 34°20' W 119°41'1015.7
2017-Sep-20 15:22N 34°17' W 119°29'715.5
2017-Sep-20 14:56N 34°15' W 119°21'5 5.0
2017-Sep-20 13:59N 34°14' W 119°16'0 0.0
2017-Sep-20 13:26N 34°14' W 119°16'0 0.0
2017-Sep-20 12:59N 34°14' W 119°16'0 0.0
2017-Sep-20 12:26N 34°14' W 119°16'0 0.0
2017-Sep-20 11:56N 34°14' W 119°16'0 0.0
2017-Sep-20 11:26N 34°14' W 119°16'0 0.0
2017-Sep-20 10:59N 34°14' W 119°16'0 0.0
2017-Sep-20 10:29N 34°14' W 119°16'0 0.0
2017-Sep-20 09:59N 34°14' W 119°16'0 0.0
2017-Sep-20 09:29N 34°14' W 119°16'0 0.0
2017-Sep-20 08:59N 34°14' W 119°16'0 0.0
2017-Sep-20 08:29N 34°14' W 119°16'0 0.0
2017-Sep-20 07:59N 34°14' W 119°16'0 0.0
2017-Sep-20 07:26N 34°14' W 119°16'0 0.0
2017-Sep-20 06:59N 34°14' W 119°16'0 0.0
2017-Sep-20 06:29N 34°14' W 119°16'0 0.0
2017-Sep-20 05:59N 34°14' W 119°16'0 0.0
2017-Sep-20 05:29N 34°14' W 119°16'0 0.0
2017-Sep-20 04:59N 34°14' W 119°16'0 0.0
2017-Sep-20 04:26N 34°14' W 119°16'0 0.0
2017-Sep-20 03:56N 34°14' W 119°16'0 0.0
2017-Sep-20 03:20N 34°14' W 119°16'0 0.0
2017-Sep-20 02:59N 34°14' W 119°16'0 0.0
2017-Sep-20 02:26N 34°14' W 119°16'0 0.0
2017-Sep-20 01:59N 34°14' W 119°16'0 0.0
2017-Sep-20 01:26N 34°14' W 119°16'0 0.0
2017-Sep-20 00:59N 34°14' W 119°16'0 0.0
2017-Sep-20 00:29N 34°14' W 119°16'0 0.0
2017-Sep-19 23:59N 34°14' W 119°16'0 0.0
2017-Sep-19 23:29N 34°14' W 119°16'0 0.0
2017-Sep-19 22:56N 34°14' W 119°16'0 0.0
2017-Sep-19 22:20N 34°14' W 119°16'0 0.0
2017-Sep-19 21:59N 34°14' W 119°16'0 0.0
2017-Sep-19 21:29N 34°14' W 119°16'0 0.0
2017-Sep-19 20:59N 34°14' W 119°16'0 0.0
2017-Sep-19 20:29N 34°14' W 119°16'0 0.0
2017-Sep-19 19:59N 34°14' W 119°16'1 1.2
2017-Sep-19 19:30N 34°15' W 119°16'814.7
2017-Sep-19 18:57N 34°15' W 119°26'716.1
2017-Sep-19 18:30N 34°17' W 119°34'913.8
2017-Sep-19 17:51N 34°17' W 119°45'1012.1
2017-Sep-19 17:04N 34°08' W 119°45'0 1.7
2017-Sep-19 17:00N 34°08' W 119°45'510.4
2017-Sep-19 16:30N 34°03' W 119°42'815.5
2017-Sep-19 15:57N 34°04' W 119°32'715.4
2017-Sep-19 15:30N 34°08' W 119°24'815.7
2017-Sep-19 14:59N 34°14' W 119°17'2 0.0
2017-Sep-17 19:14N 34°14' W 119°16'0 0.1
2017-Sep-17 16:47N 34°15' W 119°16'2 5.8
2017-Sep-17 16:30N 34°14' W 119°18'714.8
2017-Sep-17 16:00N 34°15' W 119°27'714.9
2017-Sep-17 15:30N 34°18' W 119°35'914.8
2017-Sep-17 14:54N 34°21' W 119°45'715.0
2017-Sep-17 14:27N 34°22' W 119°53'4 8.8
2017-Sep-17 14:00N 34°26' W 119°55'0 0.3
2017-Sep-17 13:21N 34°26' W 119°55'0 0.0
2017-Sep-17 09:15N 34°26' W 119°55'0 0.0
2017-Sep-17 07:51N 34°26' W 119°55'0 0.0
2017-Sep-17 06:20N 34°26' W 119°55'0 0.0
2017-Sep-17 05:17N 34°26' W 119°55'0 0.0
2017-Sep-17 04:41N 34°26' W 119°55'0 0.0
2017-Sep-17 00:14N 34°26' W 119°55'313.0
2017-Sep-16 23:59N 34°24' W 119°59'714.0
2017-Sep-16 23:30N 34°23' W 120°07'0 0.0
2017-Sep-16 23:00N 34°23' W 120°07'0 0.0
2017-Sep-16 22:27N 34°23' W 120°07'0 0.1
2017-Sep-16 22:00N 34°23' W 120°07'0 0.0
2017-Sep-16 21:30N 34°23' W 120°07'0 0.0
2017-Sep-16 21:00N 34°23' W 120°07'0 0.0
2017-Sep-16 20:30N 34°23' W 120°07'0 0.0
2017-Sep-16 20:00N 34°23' W 120°07'0 0.0
2017-Sep-16 19:30N 34°23' W 120°07'0 0.0
2017-Sep-16 18:59N 34°23' W 120°07'0 0.0
2017-Sep-16 18:29N 34°23' W 120°07'0 0.1
2017-Sep-16 17:59N 34°23' W 120°07'2 5.1
2017-Sep-16 17:30N 34°23' W 120°10'0 0.0
2017-Sep-16 17:00N 34°23' W 120°10'0 0.1
2017-Sep-16 16:28N 34°23' W 120°10'0 0.0
2017-Sep-16 15:58N 34°23' W 120°10'0 0.0
2017-Sep-16 15:28N 34°23' W 120°10'0 0.0
2017-Sep-16 15:00N 34°23' W 120°10'610.9
2017-Sep-16 14:28N 34°21' W 120°17'511.4
2017-Sep-16 14:00N 34°23' W 120°11'3 6.2
2017-Sep-16 13:30N 34°23' W 120°07'0 0.0
2017-Sep-16 13:00N 34°23' W 120°07'0 0.0
2017-Sep-16 12:30N 34°23' W 120°07'0 0.1
2017-Sep-16 12:00N 34°23' W 120°07'0 0.0
2017-Sep-16 11:30N 34°23' W 120°07'0 0.0
2017-Sep-16 11:00N 34°23' W 120°07'0 0.0
2017-Sep-16 10:30N 34°23' W 120°07'0 0.0
2017-Sep-16 10:00N 34°23' W 120°07'0 0.0
2017-Sep-16 09:30N 34°23' W 120°07'0 0.0
2017-Sep-16 09:00N 34°23' W 120°07'0 0.0
2017-Sep-16 08:27N 34°23' W 120°07'0 0.0
2017-Sep-16 08:00N 34°23' W 120°07'0 0.0
2017-Sep-16 07:30N 34°23' W 120°07'0 0.0
2017-Sep-16 07:00N 34°23' W 120°07'0 0.0
2017-Sep-16 06:30N 34°23' W 120°07'0 0.0
2017-Sep-16 06:00N 34°23' W 120°07'0 0.0
2017-Sep-16 05:30N 34°23' W 120°07'0 0.0
2017-Sep-16 05:00N 34°23' W 120°07'0 0.1
2017-Sep-16 04:30N 34°23' W 120°07'0 0.1
2017-Sep-16 03:57N 34°23' W 120°07'0 0.0
2017-Sep-16 03:30N 34°23' W 120°07'0 0.0
2017-Sep-16 03:00N 34°23' W 120°07'0 0.0
2017-Sep-16 02:28N 34°23' W 120°07'0 0.0
2017-Sep-16 01:55N 34°23' W 120°07'0 0.0
2017-Sep-16 01:24N 34°23' W 120°07'0 0.0
2017-Sep-16 00:58N 34°23' W 120°07'0 0.0
2017-Sep-16 00:28N 34°23' W 120°07'4 8.2
2017-Sep-16 00:00N 34°24' W 120°03'611.7
2017-Sep-15 23:29N 34°26' W 119°55'713.8
2017-Sep-15 23:00N 34°24' W 120°03'3 6.9
2017-Sep-15 22:30N 34°23' W 120°07'613.0
2017-Sep-15 22:00N 34°21' W 120°15'2 3.2
2017-Sep-15 21:29N 34°21' W 120°17'611.3
2017-Sep-15 20:57N 34°22' W 120°10'613.8
2017-Sep-15 20:30N 34°22' W 120°02'814.0
2017-Sep-15 19:55N 34°21' W 119°52'713.9
2017-Sep-15 19:25N 34°18' W 119°44'914.0
2017-Sep-15 18:49N 34°15' W 119°35'713.1
2017-Sep-15 18:15N 34°12' W 119°27'412.2
2017-Sep-15 17:57N 34°11' W 119°23'612.5
2017-Sep-15 17:30N 34°09' W 119°16'3 6.4
2017-Sep-15 16:59N 34°09' W 119°12'0 0.0
2017-Sep-15 16:20N 34°09' W 119°12'0 0.0
2017-Sep-15 15:44N 34°09' W 119°12'0 0.0
2017-Sep-15 15:26N 34°09' W 119°12'0 0.0
2017-Sep-15 14:59N 34°09' W 119°12'0 0.0
2017-Sep-15 14:26N 34°09' W 119°12'0 0.0
2017-Sep-15 13:59N 34°09' W 119°12'0 0.0
2017-Sep-15 13:29N 34°09' W 119°12'0 0.0
2017-Sep-15 12:59N 34°09' W 119°12'0 0.0
2017-Sep-15 12:26N 34°09' W 119°12'0 0.0
2017-Sep-15 11:59N 34°09' W 119°12'0 0.0
2017-Sep-15 11:29N 34°09' W 119°12'0 0.0
2017-Sep-15 10:59N 34°09' W 119°12'0 0.0
2017-Sep-15 10:29N 34°09' W 119°12'0 0.0
2017-Sep-15 09:59N 34°09' W 119°12'0 0.0
2017-Sep-15 09:29N 34°09' W 119°12'0 0.0
2017-Sep-15 08:56N 34°09' W 119°12'0 0.0
2017-Sep-15 08:29N 34°09' W 119°12'0 0.0
2017-Sep-15 07:53N 34°09' W 119°12'0 0.0
2017-Sep-15 07:26N 34°09' W 119°12'0 0.0
2017-Sep-15 06:53N 34°09' W 119°12'0 0.0
2017-Sep-15 06:29N 34°09' W 119°12'0 0.0
2017-Sep-15 05:59N 34°09' W 119°12'0 0.0
2017-Sep-15 05:26N 34°09' W 119°12'0 0.0
2017-Sep-15 04:59N 34°09' W 119°12'0 0.0
2017-Sep-15 04:20N 34°09' W 119°12'0 0.0
2017-Sep-15 03:59N 34°09' W 119°12'0 0.0
2017-Sep-15 03:26N 34°09' W 119°12'0 0.0
2017-Sep-15 02:38N 34°09' W 119°12'0 0.0
2017-Sep-15 02:26N 34°09' W 119°12'0 0.0
2017-Sep-15 01:59N 34°09' W 119°12'0 0.1
2017-Sep-15 01:30N 34°09' W 119°12'5 9.7
2017-Sep-15 01:00N 34°12' W 119°16'2 3.3
2017-Sep-15 00:22N 34°14' W 119°16'0 0.0
2017-Sep-14 23:25N 34°14' W 119°16'0 0.0
2017-Sep-14 22:58N 34°14' W 119°16'7 9.6
2017-Sep-14 22:17N 34°16' W 119°24'714.7
2017-Sep-14 21:50N 34°17' W 119°31'1714.7
2017-Sep-14 20:40N 34°22' W 119°52'414.4
2017-Sep-14 20:23N 34°22' W 119°56'614.1
2017-Sep-14 19:59N 34°23' W 120°03'4 6.7
2017-Sep-14 19:28N 34°23' W 120°07'0 0.0
2017-Sep-14 19:00N 34°23' W 120°07'0 0.2
2017-Sep-14 18:26N 34°24' W 120°07'4 8.9
2017-Sep-14 18:00N 34°22' W 120°12'4 7.6
2017-Sep-14 17:25N 34°21' W 120°17'0 0.0
2017-Sep-14 16:55N 34°21' W 120°17'513.3
2017-Sep-14 16:30N 34°23' W 120°10'3 5.2
2017-Sep-14 15:58N 34°23' W 120°07'613.3
2017-Sep-14 15:30N 34°24' W 119°60'4 7.5
2017-Sep-14 14:59N 34°26' W 119°55'0 0.2
2017-Sep-14 14:22N 34°26' W 119°55'0 0.0
2017-Sep-14 10:33N 34°26' W 119°55'0 0.0
2017-Sep-14 10:21N 34°26' W 119°55'0 0.0
2017-Sep-14 06:51N 34°26' W 119°55'0 0.0
2017-Sep-14 05:09N 34°26' W 119°55'0 0.0
2017-Sep-14 03:03N 34°26' W 119°55'0 0.0
2017-Sep-14 02:42N 34°26' W 119°55'0 0.0
2017-Sep-14 01:14N 34°26' W 119°55'1 5.9
2017-Sep-14 00:59N 34°25' W 119°56'714.9
2017-Sep-14 00:30N 34°24' W 120°05'510.4
2017-Sep-14 00:00N 34°22' W 120°11'5 9.5
2017-Sep-13 23:30N 34°21' W 120°17'4 8.2
2017-Sep-13 23:00N 34°22' W 120°12'2 3.5
2017-Sep-13 22:29N 34°23' W 120°10'0 0.0
2017-Sep-13 21:56N 34°22' W 120°10'0 0.0
2017-Sep-13 21:29N 34°23' W 120°10'0 0.0
2017-Sep-13 20:59N 34°23' W 120°10'0 0.0
2017-Sep-13 20:20N 34°22' W 120°10'0 0.0
2017-Sep-13 19:56N 34°22' W 120°10'0 0.1
2017-Sep-13 19:22N 34°22' W 120°10'3 8.9
2017-Sep-13 19:00N 34°24' W 120°06'612.2
2017-Sep-13 18:30N 34°24' W 119°59'3 6.2
2017-Sep-13 17:59N 34°26' W 119°55'0 0.0
2017-Sep-13 17:30N 34°26' W 119°55'0 0.0
2017-Sep-13 16:56N 34°26' W 119°55'1 2.2
2017-Sep-13 16:30N 34°25' W 119°56'814.4
2017-Sep-13 15:58N 34°24' W 120°05'2 3.4
2017-Sep-13 15:28N 34°24' W 120°07'1 2.8
2017-Sep-13 15:00N 34°23' W 120°09'713.7
2017-Sep-13 14:29N 34°21' W 120°17'4 9.3
2017-Sep-13 14:00N 34°22' W 120°12'4 7.2
2017-Sep-13 13:29N 34°23' W 120°07'0 0.0
2017-Sep-13 12:59N 34°23' W 120°07'0 0.0
2017-Sep-13 12:29N 34°23' W 120°07'0 0.0
2017-Sep-13 11:59N 34°23' W 120°07'0 0.0
2017-Sep-13 11:29N 34°23' W 120°07'0 0.0
2017-Sep-13 10:56N 34°23' W 120°07'0 0.0
2017-Sep-13 10:29N 34°23' W 120°07'0 0.0
2017-Sep-13 09:53N 34°23' W 120°07'0 0.0
2017-Sep-13 09:29N 34°23' W 120°07'0 0.0
2017-Sep-13 08:59N 34°23' W 120°07'0 0.1
2017-Sep-13 08:29N 34°23' W 120°07'0 0.0
2017-Sep-13 07:56N 34°23' W 120°07'0 0.0
2017-Sep-13 07:29N 34°23' W 120°07'0 0.0
2017-Sep-13 06:59N 34°23' W 120°07'0 0.0
2017-Sep-13 06:29N 34°23' W 120°07'0 0.1
2017-Sep-13 05:58N 34°23' W 120°07'0 0.0
2017-Sep-13 05:28N 34°23' W 120°07'0 0.0
2017-Sep-13 04:52N 34°23' W 120°07'0 0.0
2017-Sep-13 04:19N 34°23' W 120°07'0 0.0
2017-Sep-13 03:58N 34°23' W 120°07'0 0.0
2017-Sep-13 03:28N 34°23' W 120°07'0 0.0
2017-Sep-13 02:58N 34°23' W 120°07'0 0.0
2017-Sep-13 02:27N 34°23' W 120°07'0 0.0
2017-Sep-13 02:00N 34°23' W 120°07'0 0.0
2017-Sep-13 01:28N 34°23' W 120°07'0 0.0
2017-Sep-13 00:58N 34°23' W 120°07'0 0.0
2017-Sep-13 00:25N 34°23' W 120°07'0 0.5
2017-Sep-13 00:00N 34°23' W 120°07'713.0
2017-Sep-12 23:29N 34°24' W 119°59'4 4.7
2017-Sep-12 22:45N 34°26' W 119°55'0 0.0
2017-Sep-12 22:30N 34°26' W 119°55'0 0.0
2017-Sep-12 22:00N 34°26' W 119°55'0 0.0
2017-Sep-12 21:21N 34°26' W 119°55'0 0.0
2017-Sep-12 20:54N 34°26' W 119°55'0 0.0
2017-Sep-12 20:30N 34°26' W 119°55'0 0.0
2017-Sep-12 19:59N 34°26' W 119°55'0 0.0
2017-Sep-12 19:17N 34°26' W 119°55'0 0.0
2017-Sep-12 18:50N 34°26' W 119°55'0 0.0
2017-Sep-12 18:26N 34°26' W 119°55'0 0.0
2017-Sep-12 17:59N 34°26' W 119°55'0 0.0
2017-Sep-12 17:29N 34°26' W 119°55'0 0.0
2017-Sep-12 16:38N 34°26' W 119°55'0 0.0
2017-Sep-12 16:17N 34°26' W 119°55'0 0.7
2017-Sep-12 15:58N 34°26' W 119°55'611.6
2017-Sep-12 15:26N 34°24' W 120°03'614.5
2017-Sep-12 15:00N 34°23' W 120°10'611.3
2017-Sep-12 14:30N 34°21' W 120°17'611.6
2017-Sep-12 14:00N 34°23' W 120°10'3 5.1
2017-Sep-12 13:30N 34°23' W 120°07'0 0.0
2017-Sep-12 13:00N 34°23' W 120°07'0 0.0
2017-Sep-12 12:30N 34°23' W 120°07'0 0.0
2017-Sep-12 12:00N 34°23' W 120°07'0 0.0
2017-Sep-12 11:27N 34°23' W 120°07'0 0.0
2017-Sep-12 10:45N 34°23' W 120°07'0 0.2
2017-Sep-12 10:30N 34°23' W 120°07'0 0.1
2017-Sep-12 10:00N 34°23' W 120°07'0 0.0
2017-Sep-12 09:27N 34°23' W 120°07'0 0.0
2017-Sep-12 09:00N 34°23' W 120°07'0 0.0
2017-Sep-12 08:30N 34°23' W 120°07'0 0.0
2017-Sep-12 08:00N 34°23' W 120°07'0 0.0
2017-Sep-12 07:30N 34°23' W 120°07'0 0.0
2017-Sep-12 07:00N 34°23' W 120°07'0 0.0
2017-Sep-12 06:27N 34°23' W 120°07'0 0.0
2017-Sep-12 06:00N 34°23' W 120°07'0 0.0
2017-Sep-12 05:27N 34°23' W 120°07'0 0.1
2017-Sep-12 04:39N 34°23' W 120°07'0 0.0
2017-Sep-12 04:30N 34°23' W 120°07'0 0.0
2017-Sep-12 03:57N 34°23' W 120°07'0 0.1
2017-Sep-12 03:21N 34°23' W 120°07'0 0.1
2017-Sep-12 02:51N 34°23' W 120°07'0 0.0
2017-Sep-12 02:30N 34°23' W 120°07'  

Dump ship's entire track history